New Miami, Ohio
Current Conditions -  °F | °C
As of 10:53 AM on Tuesday 21 Oct 2014 (Local Time) from KHAO Reporting Station
Overcast Overcast  
Wind Chill: 54°   Ceiling: 5500
Heat Index: 54°   Visibility: 10mi
Dew Point: 44°   Wind: 10mph
Humidity: 69%   Direction: 320°NW
Pressure: 30.04"   Gusts: NA
Location:  39.4247°N, 84.5012°W
Report Text: KHAO 211453Z AUTO 32009KT 10SM FEW026 OVC055 12/07 A3004 RMK AO2 SLP172 T01220067 51017
Loading
Personal Weather Stations






























Interactive Weather Map
Tropical Storm Tracking
New forecast layout! Learn more

10-Day Weather Forecast

Advertisements
Track Severe Weather on mobile